sensor_id;sensor_type;location;lat;lon;timestamp;pressure;altitude;pressure_sealevel;temperature;humidity
81181;BME280;70650;51.408;7.132;2024-01-30T00:00:59;101434.75;;;8.96;76.96
81181;BME280;70650;51.408;7.132;2024-01-30T00:03:24;101434.81;;;8.94;77.01
81181;BME280;70650;51.408;7.132;2024-01-30T00:05:49;101432.22;;;8.93;77.04
81181;BME280;70650;51.408;7.132;2024-01-30T00:08:14;101433.53;;;8.80;77.46
81181;BME280;70650;51.408;7.132;2024-01-30T00:10:41;101440.47;;;8.82;77.32
81181;BME280;70650;51.408;7.132;2024-01-30T00:13:06;101433.66;;;8.75;77.66
81181;BME280;70650;51.408;7.132;2024-01-30T00:15:32;101438.00;;;8.76;77.49
81181;BME280;70650;51.408;7.132;2024-01-30T00:17:57;101436.19;;;8.78;77.24
81181;BME280;70650;51.408;7.132;2024-01-30T00:20:23;101437.88;;;8.81;77.05
81181;BME280;70650;51.408;7.132;2024-01-30T00:22:48;101432.84;;;8.71;77.48
81181;BME280;70650;51.408;7.132;2024-01-30T00:25:17;101431.69;;;8.50;77.97
81181;BME280;70650;51.408;7.132;2024-01-30T00:27:42;101427.94;;;8.59;78.11
81181;BME280;70650;51.408;7.132;2024-01-30T00:30:08;101426.97;;;8.62;77.97
81181;BME280;70650;51.408;7.132;2024-01-30T00:32:33;101422.75;;;8.56;77.93
81181;BME280;70650;51.408;7.132;2024-01-30T00:34:59;101424.50;;;8.57;77.90
81181;BME280;70650;51.408;7.132;2024-01-30T00:37:24;101423.03;;;8.47;78.06
81181;BME280;70650;51.408;7.132;2024-01-30T00:39:50;101415.94;;;8.49;78.06
81181;BME280;70650;51.408;7.132;2024-01-30T00:42:15;101419.53;;;8.46;78.35
81181;BME280;70650;51.408;7.132;2024-01-30T00:44:41;101413.41;;;8.46;78.08
81181;BME280;70650;51.408;7.132;2024-01-30T00:47:06;101411.63;;;8.46;77.89
81181;BME280;70650;51.408;7.132;2024-01-30T00:49:31;101413.56;;;8.40;78.44
81181;BME280;70650;51.408;7.132;2024-01-30T00:51:57;101410.16;;;8.36;78.79
81181;BME280;70650;51.408;7.132;2024-01-30T00:54:22;101408.41;;;8.34;78.46
81181;BME280;70650;51.408;7.132;2024-01-30T00:56:47;101411.03;;;8.35;78.46
81181;BME280;70650;51.408;7.132;2024-01-30T00:59:13;101406.66;;;8.34;78.73
81181;BME280;70650;51.408;7.132;2024-01-30T01:01:38;101406.66;;;8.34;78.48
81181;BME280;70650;51.408;7.132;2024-01-30T01:04:03;101410.25;;;8.32;78.55
81181;BME280;70650;51.408;7.132;2024-01-30T01:06:29;101409.50;;;8.27;78.49
81181;BME280;70650;51.408;7.132;2024-01-30T01:08:54;101407.78;;;8.26;78.44
81181;BME280;70650;51.408;7.132;2024-01-30T01:11:19;101404.63;;;8.13;79.16
81181;BME280;70650;51.408;7.132;2024-01-30T01:13:44;101403.75;;;8.12;79.11
81181;BME280;70650;51.408;7.132;2024-01-30T01:16:10;101409.03;;;8.12;79.23
81181;BME280;70650;51.408;7.132;2024-01-30T01:18:35;101404.72;;;8.08;79.28
81181;BME280;70650;51.408;7.132;2024-01-30T01:21:00;101404.81;;;8.05;79.29
81181;BME280;70650;51.408;7.132;2024-01-30T01:23:26;101408.41;;;8.03;79.57
81181;BME280;70650;51.408;7.132;2024-01-30T01:25:51;101414.53;;;8.03;80.06
81181;BME280;70650;51.408;7.132;2024-01-30T01:28:16;101411.19;;;7.96;79.87
81181;BME280;70650;51.408;7.132;2024-01-30T01:30:42;101413.03;;;7.94;80.08
81181;BME280;70650;51.408;7.132;2024-01-30T01:33:07;101408.50;;;7.98;79.84
81181;BME280;70650;51.408;7.132;2024-01-30T01:35:33;101406.84;;;7.94;80.10
81181;BME280;70650;51.408;7.132;2024-01-30T01:37:58;101407.53;;;8.02;79.67
81181;BME280;70650;51.408;7.132;2024-01-30T01:40:26;101411.72;;;8.09;79.65
81181;BME280;70650;51.408;7.132;2024-01-30T01:42:52;101404.84;;;8.04;79.49
81181;BME280;70650;51.408;7.132;2024-01-30T01:45:19;101406.56;;;8.06;79.22
81181;BME280;70650;51.408;7.132;2024-01-30T01:47:47;101400.25;;;8.12;79.21
81181;BME280;70650;51.408;7.132;2024-01-30T01:50:18;101405.53;;;8.10;79.33
81181;BME280;70650;51.408;7.132;2024-01-30T01:52:44;101401.06;;;8.14;79.27
81181;BME280;70650;51.408;7.132;2024-01-30T01:55:10;101401.47;;;7.98;79.26
81181;BME280;70650;51.408;7.132;2024-01-30T01:57:35;101397.91;;;8.01;79.27
81181;BME280;70650;51.408;7.132;2024-01-30T02:00:01;101388.13;;;8.06;79.43
81181;BME280;70650;51.408;7.132;2024-01-30T02:02:30;101389.75;;;8.10;79.11
81181;BME280;70650;51.408;7.132;2024-01-30T02:04:57;101390.75;;;8.06;79.36
81181;BME280;70650;51.408;7.132;2024-01-30T02:07:22;101391.63;;;8.07;79.28
81181;BME280;70650;51.408;7.132;2024-01-30T02:09:48;101387.94;;;8.12;79.27
81181;BME280;70650;51.408;7.132;2024-01-30T02:12:13;101385.50;;;8.05;79.71
81181;BME280;70650;51.408;7.132;2024-01-30T02:14:45;101385.56;;;8.03;79.29
81181;BME280;70650;51.408;7.132;2024-01-30T02:17:12;101384.69;;;8.03;79.63
81181;BME280;70650;51.408;7.132;2024-01-30T02:19:37;101378.63;;;7.99;79.69
81181;BME280;70650;51.408;7.132;2024-01-30T02:22:03;101381.19;;;8.02;79.97
81181;BME280;70650;51.408;7.132;2024-01-30T02:24:29;101379.22;;;8.10;79.93
81181;BME280;70650;51.408;7.132;2024-01-30T02:26:54;101373.81;;;8.15;79.38
81181;BME280;70650;51.408;7.132;2024-01-30T02:29:20;101373.69;;;8.19;79.06
81181;BME280;70650;51.408;7.132;2024-01-30T02:31:46;101375.53;;;8.17;79.56
81181;BME280;70650;51.408;7.132;2024-01-30T02:34:11;101373.69;;;8.19;79.47
81181;BME280;70650;51.408;7.132;2024-01-30T02:36:36;101375.41;;;8.20;79.26
81181;BME280;70650;51.408;7.132;2024-01-30T02:39:02;101369.34;;;8.18;79.18
81181;BME280;70650;51.408;7.132;2024-01-30T02:41:27;101371.91;;;8.20;79.31
81181;BME280;70650;51.408;7.132;2024-01-30T02:43:52;101369.50;;;8.12;79.42
81181;BME280;70650;51.408;7.132;2024-01-30T02:46:19;101371.97;;;8.18;79.10
81181;BME280;70650;51.408;7.132;2024-01-30T02:48:44;101365.97;;;8.13;79.37
81181;BME280;70650;51.408;7.132;2024-01-30T02:51:10;101369.41;;;8.15;79.22
81181;BME280;70650;51.408;7.132;2024-01-30T02:53:35;101357.25;;;8.11;78.91
81181;BME280;70650;51.408;7.132;2024-01-30T02:56:02;101362.47;;;8.13;79.04
81181;BME280;70650;51.408;7.132;2024-01-30T02:58:28;101354.56;;;8.13;79.06
81181;BME280;70650;51.408;7.132;2024-01-30T03:00:53;101353.03;;;8.06;79.39
81181;BME280;70650;51.408;7.132;2024-01-30T03:03:18;101353.72;;;8.11;79.45
81181;BME280;70650;51.408;7.132;2024-01-30T03:05:44;101345.13;;;8.06;79.37
81181;BME280;70650;51.408;7.132;2024-01-30T03:08:09;101341.59;;;8.05;79.68
81181;BME280;70650;51.408;7.132;2024-01-30T03:10:35;101349.59;;;8.02;79.82
81181;BME280;70650;51.408;7.132;2024-01-30T03:13:00;101340.66;;;8.08;79.37
81181;BME280;70650;51.408;7.132;2024-01-30T03:15:25;101340.53;;;8.12;79.51
81181;BME280;70650;51.408;7.132;2024-01-30T03:17:53;101334.34;;;8.13;79.38
81181;BME280;70650;51.408;7.132;2024-01-30T03:20:18;101337.09;;;8.09;79.28
81181;BME280;70650;51.408;7.132;2024-01-30T03:22:43;101331.06;;;8.05;79.29
81181;BME280;70650;51.408;7.132;2024-01-30T03:25:09;101330.03;;;8.11;79.45
81181;BME280;70650;51.408;7.132;2024-01-30T03:27:34;101329.94;;;8.14;79.48
81181;BME280;70650;51.408;7.132;2024-01-30T03:29:59;101329.94;;;8.14;79.42
81181;BME280;70650;51.408;7.132;2024-01-30T03:32:24;101329.53;;;8.29;78.94
81181;BME280;70650;51.408;7.132;2024-01-30T03:34:50;101319.69;;;8.36;78.33
81181;BME280;70650;51.408;7.132;2024-01-30T03:37:15;101329.31;;;8.37;78.67
81181;BME280;70650;51.408;7.132;2024-01-30T03:39:40;101321.22;;;8.43;78.60
81181;BME280;70650;51.408;7.132;2024-01-30T03:42:06;101326.31;;;8.49;78.20
81181;BME280;70650;51.408;7.132;2024-01-30T03:44:31;101320.41;;;8.41;78.81
81181;BME280;70650;51.408;7.132;2024-01-30T03:46:56;101326.31;;;8.49;77.82
81181;BME280;70650;51.408;7.132;2024-01-30T03:49:21;101330.53;;;8.55;78.16
81181;BME280;70650;51.408;7.132;2024-01-30T03:51:47;101329.72;;;8.53;78.41
81181;BME280;70650;51.408;7.132;2024-01-30T03:54:12;101326.13;;;8.55;77.94
81181;BME280;70650;51.408;7.132;2024-01-30T03:56:38;101324.16;;;8.62;78.03
81181;BME280;70650;51.408;7.132;2024-01-30T03:59:03;101322.84;;;8.76;77.32
81181;BME280;70650;51.408;7.132;2024-01-30T04:01:28;101321.88;;;8.79;77.37
81181;BME280;70650;51.408;7.132;2024-01-30T04:03:54;101327.72;;;8.89;76.90
81181;BME280;70650;51.408;7.132;2024-01-30T04:06:20;101315.00;;;9.01;76.35
81181;BME280;70650;51.408;7.132;2024-01-30T04:08:45;101310.75;;;8.97;76.67
81181;BME280;70650;51.408;7.132;2024-01-30T04:11:12;101313.13;;;9.05;76.21
81181;BME280;70650;51.408;7.132;2024-01-30T04:13:37;101313.09;;;9.07;76.63
81181;BME280;70650;51.408;7.132;2024-01-30T04:16:03;101308.50;;;9.13;75.83
81181;BME280;70650;51.408;7.132;2024-01-30T04:18:29;101305.88;;;9.12;75.95
81181;BME280;70650;51.408;7.132;2024-01-30T04:20:54;101297.25;;;9.07;76.16
81181;BME280;70650;51.408;7.132;2024-01-30T04:23:20;101293.72;;;9.08;76.23
81181;BME280;70650;51.408;7.132;2024-01-30T04:25:45;101297.75;;;9.19;75.45
81181;BME280;70650;51.408;7.132;2024-01-30T04:28:12;101295.25;;;9.15;76.04
81181;BME280;70650;51.408;7.132;2024-01-30T04:30:38;101299.34;;;9.23;75.51
81181;BME280;70650;51.408;7.132;2024-01-30T04:33:03;101296.00;;;9.18;75.52
81181;BME280;70650;51.408;7.132;2024-01-30T04:35:29;101294.41;;;9.13;76.02
81181;BME280;70650;51.408;7.132;2024-01-30T04:37:54;101289.97;;;9.15;75.82
81181;BME280;70650;51.408;7.132;2024-01-30T04:40:20;101297.94;;;9.13;75.80
81181;BME280;70650;51.408;7.132;2024-01-30T04:42:46;101297.81;;;9.16;75.84
81181;BME280;70650;51.408;7.132;2024-01-30T04:45:12;101288.47;;;9.08;76.17
81181;BME280;70650;51.408;7.132;2024-01-30T04:47:37;101291.94;;;9.08;76.17
81181;BME280;70650;51.408;7.132;2024-01-30T04:50:04;101288.34;;;9.11;75.91
81181;BME280;70650;51.408;7.132;2024-01-30T04:52:30;101286.47;;;9.14;75.73
81181;BME280;70650;51.408;7.132;2024-01-30T04:54:55;101287.41;;;9.13;75.83
81181;BME280;70650;51.408;7.132;2024-01-30T04:57:20;101285.75;;;9.09;75.93
81181;BME280;70650;51.408;7.132;2024-01-30T04:59:46;101291.56;;;9.19;75.52
81181;BME280;70650;51.408;7.132;2024-01-30T05:02:11;101288.91;;;9.20;75.64
81181;BME280;70650;51.408;7.132;2024-01-30T05:04:36;101282.59;;;9.24;75.35
81181;BME280;70650;51.408;7.132;2024-01-30T05:07:02;101289.69;;;9.22;75.22
81181;BME280;70650;51.408;7.132;2024-01-30T05:09:27;101282.19;;;9.10;75.78
81181;BME280;70650;51.408;7.132;2024-01-30T05:11:53;101298.84;;;9.12;75.46
81181;BME280;70650;51.408;7.132;2024-01-30T05:14:19;101290.88;;;9.14;75.47
81181;BME280;70650;51.408;7.132;2024-01-30T05:16:44;101290.69;;;9.20;75.33
81181;BME280;70650;51.408;7.132;2024-01-30T05:19:13;101295.09;;;9.19;75.26
81181;BME280;70650;51.408;7.132;2024-01-30T05:21:39;101298.34;;;9.27;75.07
81181;BME280;70650;51.408;7.132;2024-01-30T05:24:04;101289.41;;;9.32;74.75
81181;BME280;70650;51.408;7.132;2024-01-30T05:26:30;101286.06;;;9.26;74.99
81181;BME280;70650;51.408;7.132;2024-01-30T05:28:55;101287.00;;;9.24;75.08
81181;BME280;70650;51.408;7.132;2024-01-30T05:31:20;101289.56;;;9.27;74.98
81181;BME280;70650;51.408;7.132;2024-01-30T05:33:46;101285.13;;;9.27;75.05
81181;BME280;70650;51.408;7.132;2024-01-30T05:36:12;101282.66;;;9.23;75.31
81181;BME280;70650;51.408;7.132;2024-01-30T05:38:39;101281.69;;;9.25;75.05
81181;BME280;70650;51.408;7.132;2024-01-30T05:41:04;101285.91;;;9.31;74.70
81181;BME280;70650;51.408;7.132;2024-01-30T05:43:29;101280.44;;;9.36;74.70
81181;BME280;70650;51.408;7.132;2024-01-30T05:45:55;101282.28;;;9.34;74.72
81181;BME280;70650;51.408;7.132;2024-01-30T05:48:20;101280.84;;;9.25;74.78
81181;BME280;70650;51.408;7.132;2024-01-30T05:50:46;101291.47;;;9.22;75.23
81181;BME280;70650;51.408;7.132;2024-01-30T05:53:11;101282.78;;;9.18;75.38
81181;BME280;70650;51.408;7.132;2024-01-30T05:55:37;101284.75;;;9.13;75.57
81181;BME280;70650;51.408;7.132;2024-01-30T05:58:03;101289.00;;;9.17;75.54
81181;BME280;70650;51.408;7.132;2024-01-30T06:00:29;101289.63;;;9.25;75.04
81181;BME280;70650;51.408;7.132;2024-01-30T06:02:54;101285.13;;;9.27;74.92
81181;BME280;70650;51.408;7.132;2024-01-30T06:05:19;101281.91;;;9.19;75.32
81181;BME280;70650;51.408;7.132;2024-01-30T06:07:45;101280.22;;;9.17;75.62
81181;BME280;70650;51.408;7.132;2024-01-30T06:10:10;101275.09;;;9.12;75.78
81181;BME280;70650;51.408;7.132;2024-01-30T06:12:35;101280.22;;;9.17;75.60
81181;BME280;70650;51.408;7.132;2024-01-30T06:15:02;101279.16;;;9.22;75.59
81181;BME280;70650;51.408;7.132;2024-01-30T06:17:28;101287.19;;;9.19;75.47
81181;BME280;70650;51.408;7.132;2024-01-30T06:19:56;101277.31;;;9.24;75.35
81181;BME280;70650;51.408;7.132;2024-01-30T06:22:22;101277.22;;;9.27;75.61
81181;BME280;70650;51.408;7.132;2024-01-30T06:24:47;101277.38;;;9.23;75.59
81181;BME280;70650;51.408;7.132;2024-01-30T06:27:15;101272.09;;;9.23;75.37
81181;BME280;70650;51.408;7.132;2024-01-30T06:29:42;101272.22;;;9.20;75.57
81181;BME280;70650;51.408;7.132;2024-01-30T06:32:08;101281.78;;;9.22;75.52
81181;BME280;70650;51.408;7.132;2024-01-30T06:34:33;101276.31;;;9.28;75.28
81181;BME280;70650;51.408;7.132;2024-01-30T06:36:58;101277.94;;;9.33;75.19
81181;BME280;70650;51.408;7.132;2024-01-30T06:39:24;101274.63;;;9.26;75.56
81181;BME280;70650;51.408;7.132;2024-01-30T06:41:50;101266.75;;;9.24;75.36
81181;BME280;70650;51.408;7.132;2024-01-30T06:44:15;101275.75;;;9.19;75.87
81181;BME280;70650;51.408;7.132;2024-01-30T06:46:40;101274.13;;;9.15;76.15
81181;BME280;70650;51.408;7.132;2024-01-30T06:49:06;101275.25;;;9.08;76.56
81181;BME280;70650;51.408;7.132;2024-01-30T06:51:31;101276.06;;;9.10;76.30
81181;BME280;70650;51.408;7.132;2024-01-30T06:53:56;101281.44;;;9.07;76.71
81181;BME280;70650;51.408;7.132;2024-01-30T06:56:22;101288.91;;;9.20;76.19
81181;BME280;70650;51.408;7.132;2024-01-30T06:58:48;101275.75;;;9.19;76.42
81181;BME280;70650;51.408;7.132;2024-01-30T07:01:14;101270.28;;;9.25;76.24
81181;BME280;70650;51.408;7.132;2024-01-30T07:03:40;101276.41;;;9.25;76.17
81181;BME280;70650;51.408;7.132;2024-01-30T07:06:05;101282.56;;;9.26;76.19
81181;BME280;70650;51.408;7.132;2024-01-30T07:08:30;101280.72;;;9.28;76.06
81181;BME280;70650;51.408;7.132;2024-01-30T07:10:56;101282.34;;;9.32;75.98
81181;BME280;70650;51.408;7.132;2024-01-30T07:13:21;101280.44;;;9.36;75.98
81181;BME280;70650;51.408;7.132;2024-01-30T07:15:46;101285.69;;;9.37;75.62
81181;BME280;70650;51.408;7.132;2024-01-30T07:18:12;101284.13;;;9.32;76.18
81181;BME280;70650;51.408;7.132;2024-01-30T07:20:39;101284.84;;;9.37;76.06
81181;BME280;70650;51.408;7.132;2024-01-30T07:23:15;101293.47;;;9.42;75.93
81181;BME280;70650;51.408;7.132;2024-01-30T07:25:42;101301.31;;;9.43;76.08
81181;BME280;70650;51.408;7.132;2024-01-30T07:28:08;101300.19;;;9.50;75.74
81181;BME280;70650;51.408;7.132;2024-01-30T07:30:35;101299.19;;;9.54;75.55
81181;BME280;70650;51.408;7.132;2024-01-30T07:33:00;101304.47;;;9.54;75.66
81181;BME280;70650;51.408;7.132;2024-01-30T07:35:26;101309.63;;;9.57;75.44
81181;BME280;70650;51.408;7.132;2024-01-30T07:37:51;101301.75;;;9.56;75.43
81181;BME280;70650;51.408;7.132;2024-01-30T07:40:17;101299.81;;;9.61;75.37
81181;BME280;70650;51.408;7.132;2024-01-30T07:42:42;101304.94;;;9.66;75.40
81181;BME280;70650;51.408;7.132;2024-01-30T07:45:08;101308.31;;;9.69;75.27
81181;BME280;70650;51.408;7.132;2024-01-30T07:47:33;101309.00;;;9.76;75.58
81181;BME280;70650;51.408;7.132;2024-01-30T07:49:58;101313.78;;;9.90;75.31
81181;BME280;70650;51.408;7.132;2024-01-30T07:52:24;101315.56;;;9.89;74.78
81181;BME280;70650;51.408;7.132;2024-01-30T07:54:50;101307.50;;;9.92;74.92
81181;BME280;70650;51.408;7.132;2024-01-30T07:57:17;101310.97;;;9.94;74.78
81181;BME280;70650;51.408;7.132;2024-01-30T07:59:43;101311.69;;;9.99;74.73
81181;BME280;70650;51.408;7.132;2024-01-30T08:02:12;101323.91;;;10.02;74.54
81181;BME280;70650;51.408;7.132;2024-01-30T08:04:38;101319.41;;;10.04;74.53
81181;BME280;70650;51.408;7.132;2024-01-30T08:07:05;101322.13;;;10.02;74.63
81181;BME280;70650;51.408;7.132;2024-01-30T08:09:30;101321.25;;;10.02;74.90
81181;BME280;70650;51.408;7.132;2024-01-30T08:11:56;101316.88;;;10.01;74.85
81181;BME280;70650;51.408;7.132;2024-01-30T08:14:21;101316.72;;;10.05;74.98
81181;BME280;70650;51.408;7.132;2024-01-30T08:16:47;101331.59;;;10.08;74.98
81181;BME280;70650;51.408;7.132;2024-01-30T08:19:12;101328.56;;;10.19;74.72
81181;BME280;70650;51.408;7.132;2024-01-30T08:21:37;101327.50;;;10.24;74.47
81181;BME280;70650;51.408;7.132;2024-01-30T08:24:03;101325.03;;;10.43;73.91
81181;BME280;70650;51.408;7.132;2024-01-30T08:26:30;101320.03;;;10.35;73.92
81181;BME280;70650;51.408;7.132;2024-01-30T08:28:57;101320.09;;;10.34;73.92
81181;BME280;70650;51.408;7.132;2024-01-30T08:31:23;101316.72;;;10.30;74.02
81181;BME280;70650;51.408;7.132;2024-01-30T08:33:50;101330.00;;;10.29;74.57
81181;BME280;70650;51.408;7.132;2024-01-30T08:36:16;101342.19;;;10.33;73.98
81181;BME280;70650;51.408;7.132;2024-01-30T08:38:42;101329.06;;;10.30;74.14
81181;BME280;70650;51.408;7.132;2024-01-30T08:41:07;101329.94;;;10.30;74.19
81181;BME280;70650;51.408;7.132;2024-01-30T08:43:34;101341.19;;;10.35;74.18
81181;BME280;70650;51.408;7.132;2024-01-30T08:46:01;101338.47;;;10.37;73.79
81181;BME280;70650;51.408;7.132;2024-01-30T08:48:29;101336.94;;;10.31;73.69
81181;BME280;70650;51.408;7.132;2024-01-30T08:50:54;101341.97;;;10.38;73.61
81181;BME280;70650;51.408;7.132;2024-01-30T08:53:19;101336.75;;;10.36;73.79
81181;BME280;70650;51.408;7.132;2024-01-30T08:55:45;101347.25;;;10.39;73.80
81181;BME280;70650;51.408;7.132;2024-01-30T08:58:10;101341.97;;;10.38;73.93
81181;BME280;70650;51.408;7.132;2024-01-30T09:00:36;101341.66;;;10.47;73.57
81181;BME280;70650;51.408;7.132;2024-01-30T09:03:03;101343.59;;;10.42;73.77
81181;BME280;70650;51.408;7.132;2024-01-30T09:05:28;101345.09;;;10.49;73.59
81181;BME280;70650;51.408;7.132;2024-01-30T09:07:53;101342.44;;;10.49;73.82
81181;BME280;70650;51.408;7.132;2024-01-30T09:10:19;101355.56;;;10.52;73.67
81181;BME280;70650;51.408;7.132;2024-01-30T09:12:44;101352.06;;;10.51;73.46
81181;BME280;70650;51.408;7.132;2024-01-30T09:15:12;101354.78;;;10.50;73.61
81181;BME280;70650;51.408;7.132;2024-01-30T09:17:38;101358.38;;;10.47;73.70
81181;BME280;70650;51.408;7.132;2024-01-30T09:20:04;101357.28;;;10.53;73.12
81181;BME280;70650;51.408;7.132;2024-01-30T09:22:30;101371.25;;;10.56;73.14
81181;BME280;70650;51.408;7.132;2024-01-30T09:24:56;101372.13;;;10.57;73.23
81181;BME280;70650;51.408;7.132;2024-01-30T09:27:21;101377.50;;;10.54;73.44
81181;BME280;70650;51.408;7.132;2024-01-30T09:29:47;101385.63;;;10.49;73.25
81181;BME280;70650;51.408;7.132;2024-01-30T09:32:12;101388.22;;;10.51;73.01
81181;BME280;70650;51.408;7.132;2024-01-30T09:34:37;101389.09;;;10.51;73.14
81181;BME280;70650;51.408;7.132;2024-01-30T09:37:04;101382.16;;;10.47;73.01
81181;BME280;70650;51.408;7.132;2024-01-30T09:39:31;101386.28;;;10.56;73.03
81181;BME280;70650;51.408;7.132;2024-01-30T09:42:05;101374.84;;;10.55;72.83
81181;BME280;70650;51.408;7.132;2024-01-30T09:44:30;101380.78;;;10.60;72.75
81181;BME280;70650;51.408;7.132;2024-01-30T09:46:56;101373.50;;;10.67;72.41
81181;BME280;70650;51.408;7.132;2024-01-30T09:49:24;101381.31;;;10.70;72.51
81181;BME280;70650;51.408;7.132;2024-01-30T09:51:50;101375.84;;;10.75;72.22
81181;BME280;70650;51.408;7.132;2024-01-30T09:54:16;101375.75;;;10.78;72.28
81181;BME280;70650;51.408;7.132;2024-01-30T09:56:42;101369.16;;;10.88;71.87
81181;BME280;70650;51.408;7.132;2024-01-30T09:59:07;101370.16;;;10.85;72.01
81181;BME280;70650;51.408;7.132;2024-01-30T10:01:34;101369.66;;;10.98;71.71
81181;BME280;70650;51.408;7.132;2024-01-30T10:04:00;101381.69;;;11.06;71.05
81181;BME280;70650;51.408;7.132;2024-01-30T10:06:26;101379.75;;;11.10;71.29
81181;BME280;70650;51.408;7.132;2024-01-30T10:08:54;101374.53;;;11.08;71.24
81181;BME280;70650;51.408;7.132;2024-01-30T10:11:19;101384.09;;;11.12;70.97
81181;BME280;70650;51.408;7.132;2024-01-30T10:13:46;101377.34;;;11.26;70.62
81181;BME280;70650;51.408;7.132;2024-01-30T10:16:13;101369.09;;;11.33;70.29
81181;BME280;70650;51.408;7.132;2024-01-30T10:18:41;101373.34;;;11.37;70.26
81181;BME280;70650;51.408;7.132;2024-01-30T10:21:07;101371.63;;;11.36;70.31
81181;BME280;70650;51.408;7.132;2024-01-30T10:23:33;101372.56;;;11.35;70.16
81181;BME280;70650;51.408;7.132;2024-01-30T10:25:58;101370.03;;;11.32;70.15
81181;BME280;70650;51.408;7.132;2024-01-30T10:28:27;101373.72;;;11.28;70.30
81181;BME280;70650;51.408;7.132;2024-01-30T10:31:01;101377.84;;;11.35;70.39
81181;BME280;70650;51.408;7.132;2024-01-30T10:33:29;101376.50;;;11.47;69.84
81181;BME280;70650;51.408;7.132;2024-01-30T10:36:00;101380.47;;;11.57;69.53
81181;BME280;70650;51.408;7.132;2024-01-30T10:38:28;101370.91;;;11.75;69.07
81181;BME280;70650;51.408;7.132;2024-01-30T10:40:56;101380.56;;;11.76;69.09
81181;BME280;70650;51.408;7.132;2024-01-30T10:43:22;101371.16;;;11.69;69.07
81181;BME280;70650;51.408;7.132;2024-01-30T10:45:49;101379.81;;;11.73;69.12
81181;BME280;70650;51.408;7.132;2024-01-30T10:48:18;101385.88;;;11.76;69.44
81181;BME280;70650;51.408;7.132;2024-01-30T10:50:46;101403.41;;;11.79;69.11
81181;BME280;70650;51.408;7.132;2024-01-30T10:53:12;101396.97;;;11.86;69.15
81181;BME280;70650;51.408;7.132;2024-01-30T10:55:38;101384.91;;;11.99;68.69
81181;BME280;70650;51.408;7.132;2024-01-30T10:58:04;101392.91;;;12.18;68.62
81181;BME280;70650;51.408;7.132;2024-01-30T11:00:30;101399.59;;;12.27;68.35
81181;BME280;70650;51.408;7.132;2024-01-30T11:02:58;101402.69;;;12.36;68.27
81181;BME280;70650;51.408;7.132;2024-01-30T11:05:24;101394.03;;;12.33;67.94
81181;BME280;70650;51.408;7.132;2024-01-30T11:07:52;101403.34;;;12.41;68.19
81181;BME280;70650;51.408;7.132;2024-01-30T11:10:18;101403.06;;;12.47;67.91
81181;BME280;70650;51.408;7.132;2024-01-30T11:12:45;101400.66;;;12.43;68.38
81181;BME280;70650;51.408;7.132;2024-01-30T11:15:15;101396.56;;;12.55;68.21
81181;BME280;70650;51.408;7.132;2024-01-30T11:20:10;101392.25;;;12.52;68.30
81181;BME280;70650;51.408;7.132;2024-01-30T11:22:36;101386.53;;;12.42;68.67
81181;BME280;70650;51.408;7.132;2024-01-30T11:25:03;101396.47;;;12.37;68.86
81181;BME280;70650;51.408;7.132;2024-01-30T11:27:30;101391.94;;;12.39;69.23
81181;BME280;70650;51.408;7.132;2024-01-30T11:30:01;101390.56;;;12.31;69.40
81181;BME280;70650;51.408;7.132;2024-01-30T11:32:27;101398.19;;;12.38;69.18
81181;BME280;70650;51.408;7.132;2024-01-30T11:34:53;101393.16;;;12.32;69.52
81181;BME280;70650;51.408;7.132;2024-01-30T11:37:21;101389.59;;;12.33;69.35
81181;BME280;70650;51.408;7.132;2024-01-30T11:39:48;101394.97;;;12.32;69.56
81181;BME280;70650;51.408;7.132;2024-01-30T11:42:13;101393.22;;;12.31;69.97
81181;BME280;70650;51.408;7.132;2024-01-30T11:44:40;101400.38;;;12.29;69.93
81181;BME280;70650;51.408;7.132;2024-01-30T11:47:06;101402.38;;;12.24;70.38
81181;BME280;70650;51.408;7.132;2024-01-30T11:49:31;101402.84;;;12.13;70.70
81181;BME280;70650;51.408;7.132;2024-01-30T11:51:56;101407.28;;;12.12;70.60
81181;BME280;70650;51.408;7.132;2024-01-30T11:54:22;101408.31;;;12.10;70.53
81181;BME280;70650;51.408;7.132;2024-01-30T11:56:48;101405.31;;;11.97;71.28
81181;BME280;70650;51.408;7.132;2024-01-30T11:59:14;101408.22;;;11.91;71.64
81181;BME280;70650;51.408;7.132;2024-01-30T12:01:39;101417.66;;;11.98;71.93
81181;BME280;70650;51.408;7.132;2024-01-30T12:04:05;101422.13;;;11.96;71.94
81181;BME280;70650;51.408;7.132;2024-01-30T12:06:34;101412.72;;;11.89;72.20
81181;BME280;70650;51.408;7.132;2024-01-30T12:09:01;101419.75;;;11.90;72.58
81181;BME280;70650;51.408;7.132;2024-01-30T12:11:29;101415.56;;;11.84;72.71
81181;BME280;70650;51.408;7.132;2024-01-30T12:13:55;101414.16;;;11.76;73.05
81181;BME280;70650;51.408;7.132;2024-01-30T12:16:21;101417.84;;;11.72;72.94
81181;BME280;70650;51.408;7.132;2024-01-30T12:18:47;101413.41;;;11.72;73.00
81181;BME280;70650;51.408;7.132;2024-01-30T12:21:16;101410.22;;;11.64;73.83
81181;BME280;70650;51.408;7.132;2024-01-30T12:23:42;101413.66;;;11.66;74.59
81181;BME280;70650;51.408;7.132;2024-01-30T12:26:08;101412.19;;;11.59;74.67
81181;BME280;70650;51.408;7.132;2024-01-30T12:28:33;101409.56;;;11.59;75.23
81181;BME280;70650;51.408;7.132;2024-01-30T12:31:03;101405.84;;;11.63;74.81
81181;BME280;70650;51.408;7.132;2024-01-30T12:33:29;101411.94;;;11.65;75.23
81181;BME280;70650;51.408;7.132;2024-01-30T12:35:55;101408.50;;;11.63;74.81
81181;BME280;70650;51.408;7.132;2024-01-30T12:38:21;101409.00;;;11.51;75.01
81181;BME280;70650;51.408;7.132;2024-01-30T12:40:46;101416.75;;;11.55;75.19
81181;BME280;70650;51.408;7.132;2024-01-30T12:43:13;101400.84;;;11.55;75.22
81181;BME280;70650;51.408;7.132;2024-01-30T12:45:41;101408.00;;;11.53;75.82
81181;BME280;70650;51.408;7.132;2024-01-30T12:48:06;101404.94;;;11.64;75.44
81181;BME280;70650;51.408;7.132;2024-01-30T12:50:32;101406.47;;;11.70;75.26
81181;BME280;70650;51.408;7.132;2024-01-30T12:52:57;101397.91;;;11.63;75.67